createdAt,value
2023-12-10T00:02:18.982Z,5.90
2023-12-10T00:05:04.668Z,4.97
2023-12-10T00:07:49.845Z,5.27
2023-12-10T00:10:34.786Z,6.20
2023-12-10T00:13:19.787Z,5.87
2023-12-10T00:16:05.073Z,5.90
2023-12-10T00:18:50.015Z,5.50
2023-12-10T00:21:35.250Z,5.77
2023-12-10T00:24:20.149Z,5.33
2023-12-10T00:27:05.318Z,4.77
2023-12-10T00:29:50.215Z,5.47
2023-12-10T00:32:35.393Z,5.60
2023-12-10T00:35:20.620Z,6.00
2023-12-10T00:38:05.919Z,5.43
2023-12-10T00:40:50.851Z,5.73
2023-12-10T00:43:35.779Z,4.53
2023-12-10T00:46:20.630Z,5.67
2023-12-10T00:49:05.655Z,5.67
2023-12-10T00:51:51.208Z,5.80
2023-12-10T00:54:36.564Z,6.00
2023-12-10T00:57:21.529Z,5.53
2023-12-10T01:00:07.401Z,6.13
2023-12-10T01:02:52.329Z,5.90
2023-12-10T01:05:37.458Z,5.73
2023-12-10T01:08:22.340Z,6.23
2023-12-10T01:11:07.521Z,5.50
2023-12-10T01:13:52.360Z,5.67
2023-12-10T01:16:37.433Z,6.07
2023-12-10T01:19:22.305Z,6.10
2023-12-10T01:22:07.772Z,5.73
2023-12-10T01:24:53.008Z,6.13
2023-12-10T01:27:38.206Z,5.93
2023-12-10T01:30:23.321Z,6.00
2023-12-10T01:33:08.875Z,5.97
2023-12-10T01:35:54.310Z,6.17
2023-12-10T01:38:39.561Z,5.90
2023-12-10T01:41:24.636Z,5.30
2023-12-10T01:44:09.738Z,6.03
2023-12-10T01:46:56.476Z,5.80
2023-12-10T01:49:41.734Z,5.40
2023-12-10T01:52:27.166Z,5.57
2023-12-10T01:55:13.403Z,4.73
2023-12-10T01:57:58.932Z,5.67
2023-12-10T02:00:44.184Z,5.97
2023-12-10T02:03:32.293Z,5.80
2023-12-10T02:06:17.370Z,5.43
2023-12-10T02:09:02.325Z,5.43
2023-12-10T02:11:47.397Z,5.80
2023-12-10T02:14:32.271Z,5.47
2023-12-10T02:17:17.205Z,6.00
2023-12-10T02:20:02.096Z,6.10
2023-12-10T02:22:58.330Z,6.03
2023-12-10T02:25:43.604Z,5.67
2023-12-10T02:28:28.575Z,5.90
2023-12-10T02:31:13.536Z,5.40
2023-12-10T02:33:58.756Z,5.70
2023-12-10T02:36:44.153Z,5.13
2023-12-10T02:39:29.355Z,6.13
2023-12-10T02:42:14.744Z,5.67
2023-12-10T02:45:00.029Z,6.67
2023-12-10T02:47:45.047Z,6.13
2023-12-10T02:50:30.387Z,6.53
2023-12-10T02:53:15.572Z,5.47
2023-12-10T02:56:00.779Z,6.77
2023-12-10T02:58:45.636Z,5.67
2023-12-10T03:01:30.785Z,7.00
2023-12-10T03:04:15.633Z,5.30
2023-12-10T03:07:00.681Z,6.33
2023-12-10T03:09:45.637Z,6.97
2023-12-10T03:12:31.395Z,5.93
2023-12-10T03:15:16.646Z,5.77
2023-12-10T03:18:01.944Z,5.67
2023-12-10T03:20:47.297Z,5.70
2023-12-10T03:23:32.194Z,5.43
2023-12-10T03:26:17.044Z,5.30
2023-12-10T03:29:01.968Z,4.87
2023-12-10T03:31:46.880Z,4.90
2023-12-10T03:34:32.088Z,5.70
2023-12-10T03:37:17.217Z,4.10
2023-12-10T03:40:02.252Z,4.70
2023-12-10T03:42:47.075Z,5.53
2023-12-10T03:45:32.718Z,4.50
2023-12-10T03:48:17.636Z,4.97
2023-12-10T03:51:03.032Z,4.73
2023-12-10T03:53:48.541Z,5.33
2023-12-10T03:56:33.818Z,4.70
2023-12-10T03:59:18.812Z,5.30
2023-12-10T04:02:04.128Z,5.20
2023-12-10T04:04:49.285Z,5.63
2023-12-10T04:07:34.160Z,6.10
2023-12-10T04:10:19.112Z,5.10
2023-12-10T04:13:03.936Z,4.80
2023-12-10T04:15:49.370Z,5.33
2023-12-10T04:18:36.841Z,5.00
2023-12-10T04:21:23.493Z,5.53
2023-12-10T04:24:08.544Z,4.63
2023-12-10T04:26:53.870Z,3.83
2023-12-10T04:29:38.611Z,4.57
2023-12-10T04:32:23.582Z,4.87
2023-12-10T04:35:08.925Z,4.60
2023-12-10T04:37:54.122Z,4.77
2023-12-10T04:40:39.672Z,3.50
2023-12-10T04:43:25.014Z,4.83
2023-12-10T04:46:10.003Z,3.17
2023-12-10T04:48:55.531Z,4.33
2023-12-10T04:51:40.989Z,4.07
2023-12-10T04:54:25.946Z,4.87
2023-12-10T04:57:10.970Z,4.40
2023-12-10T04:59:55.807Z,3.90
2023-12-10T05:02:40.780Z,4.20
2023-12-10T05:05:25.685Z,3.80
2023-12-10T05:08:10.494Z,4.33
2023-12-10T05:10:55.810Z,5.27
2023-12-10T05:13:40.741Z,4.57
2023-12-10T05:16:26.373Z,4.47
2023-12-10T05:19:11.280Z,4.30
2023-12-10T05:21:56.366Z,4.23
2023-12-10T05:24:41.903Z,4.23
2023-12-10T05:27:27.080Z,3.97
2023-12-10T05:30:12.858Z,3.70
2023-12-10T05:32:58.045Z,5.10
2023-12-10T05:35:43.363Z,4.60
2023-12-10T05:38:28.120Z,4.40
2023-12-10T05:41:13.063Z,4.73
2023-12-10T05:43:57.984Z,4.80
2023-12-10T05:46:43.507Z,3.90
2023-12-10T05:49:30.175Z,4.80
2023-12-10T05:52:15.122Z,4.27
2023-12-10T05:55:00.266Z,4.37
2023-12-10T05:57:45.558Z,4.40
2023-12-10T06:00:30.474Z,4.90
2023-12-10T06:03:15.634Z,4.07
2023-12-10T06:06:00.963Z,3.97
2023-12-10T06:08:46.448Z,4.40
2023-12-10T06:11:31.368Z,4.30
2023-12-10T06:14:16.384Z,5.30
2023-12-10T06:17:01.254Z,4.63
2023-12-10T06:19:46.796Z,4.70
2023-12-10T06:22:32.101Z,5.33
2023-12-10T06:25:17.423Z,3.67
2023-12-10T06:28:02.666Z,4.80
2023-12-10T06:30:47.510Z,4.57
2023-12-10T06:33:32.394Z,3.87
2023-12-10T06:36:17.723Z,4.17
2023-12-10T06:39:02.608Z,3.93
2023-12-10T06:41:47.499Z,3.43
2023-12-10T06:44:32.387Z,4.50
2023-12-10T06:47:17.371Z,4.07
2023-12-10T06:50:02.264Z,5.03
2023-12-10T06:52:47.056Z,4.13
2023-12-10T06:55:32.340Z,4.03
2023-12-10T06:58:17.459Z,3.70
2023-12-10T07:01:03.680Z,4.53
2023-12-10T07:03:48.894Z,4.57
2023-12-10T07:06:34.641Z,4.23
2023-12-10T07:09:19.556Z,3.57
2023-12-10T07:12:04.712Z,4.27
2023-12-10T07:14:51.626Z,3.50
2023-12-10T07:17:38.030Z,4.20
2023-12-10T07:20:23.807Z,4.27
2023-12-10T07:23:08.671Z,4.83
2023-12-10T07:25:53.678Z,4.63
2023-12-10T07:28:38.558Z,4.43
2023-12-10T07:31:24.031Z,5.07
2023-12-10T07:34:09.019Z,4.37
2023-12-10T07:36:54.292Z,5.33
2023-12-10T07:39:40.015Z,4.40
2023-12-10T07:42:25.172Z,4.60
2023-12-10T07:45:10.713Z,4.10
2023-12-10T07:47:56.213Z,3.80
2023-12-10T07:50:41.034Z,5.13
2023-12-10T07:53:26.041Z,6.00
2023-12-10T07:56:10.848Z,4.67
2023-12-10T07:58:55.873Z,4.30
2023-12-10T08:01:41.361Z,4.50
2023-12-10T08:04:26.470Z,3.23
2023-12-10T08:07:11.352Z,5.13
2023-12-10T08:09:56.343Z,4.63
2023-12-10T08:12:42.303Z,4.73
2023-12-10T08:15:27.595Z,4.67
2023-12-10T08:18:12.709Z,4.87
2023-12-10T08:20:58.013Z,4.93
2023-12-10T08:23:43.330Z,3.03
2023-12-10T08:26:28.597Z,4.00
2023-12-10T08:29:13.519Z,4.70
2023-12-10T08:31:58.535Z,5.07
2023-12-10T08:34:43.442Z,4.60
2023-12-10T08:37:28.297Z,4.10
2023-12-10T08:40:13.221Z,4.60
2023-12-10T08:42:58.133Z,4.90
2023-12-10T08:45:43.005Z,4.20
2023-12-10T08:48:30.558Z,4.80
2023-12-10T08:51:15.928Z,4.60
2023-12-10T08:54:00.742Z,4.33
2023-12-10T08:56:45.574Z,5.00
2023-12-10T08:59:30.459Z,3.43
2023-12-10T09:02:15.435Z,4.20
2023-12-10T09:05:00.669Z,4.10
2023-12-10T09:07:45.857Z,3.97
2023-12-10T09:10:30.837Z,4.13
2023-12-10T09:13:15.621Z,4.57
2023-12-10T09:16:01.099Z,4.60
2023-12-10T09:18:46.561Z,5.13
2023-12-10T09:21:31.971Z,4.00
2023-12-10T09:24:17.462Z,4.67
2023-12-10T09:27:02.430Z,5.00
2023-12-10T09:29:47.522Z,4.53
2023-12-10T09:32:33.049Z,4.23
2023-12-10T09:35:18.650Z,4.00
2023-12-10T09:38:03.903Z,3.90
2023-12-10T09:40:48.895Z,4.60
2023-12-10T09:43:33.897Z,3.80
2023-12-10T09:46:18.848Z,3.40
2023-12-10T09:49:04.246Z,4.50
2023-12-10T09:51:49.201Z,3.90
2023-12-10T09:54:34.828Z,4.17
2023-12-10T09:57:21.046Z,3.67
2023-12-10T10:00:06.738Z,4.67
2023-12-10T10:02:51.998Z,3.70
2023-12-10T10:05:37.153Z,4.30
2023-12-10T10:08:22.305Z,4.03
2023-12-10T10:11:07.292Z,4.07
2023-12-10T10:13:52.614Z,3.43
2023-12-10T10:16:38.304Z,3.80
2023-12-10T10:19:23.404Z,3.40
2023-12-10T10:22:08.851Z,4.00
2023-12-10T10:24:54.704Z,4.17
2023-12-10T10:27:39.721Z,4.20
2023-12-10T10:30:25.156Z,3.17
2023-12-10T10:33:10.714Z,3.97
2023-12-10T10:35:56.192Z,4.00
2023-12-10T10:38:41.265Z,3.40
2023-12-10T10:41:26.644Z,4.20
2023-12-10T10:44:11.777Z,3.77
2023-12-10T10:46:57.550Z,2.27
2023-12-10T10:49:45.861Z,2.57
2023-12-10T10:52:53.876Z,3.53
2023-12-10T10:55:39.104Z,4.57
2023-12-10T10:58:26.034Z,4.30
2023-12-10T11:01:37.738Z,4.63
2023-12-10T11:04:23.163Z,3.10
2023-12-10T11:07:09.315Z,3.50
2023-12-10T11:09:59.972Z,3.97
2023-12-10T11:12:45.519Z,4.17
2023-12-10T11:15:31.663Z,4.27
2023-12-10T11:18:16.882Z,4.53
2023-12-10T11:21:02.362Z,4.03
2023-12-10T11:23:47.341Z,3.27
2023-12-10T11:26:32.298Z,3.97
2023-12-10T11:29:17.304Z,3.53
2023-12-10T11:32:02.198Z,3.87
2023-12-10T11:34:47.300Z,4.23
2023-12-10T11:37:32.951Z,3.93
2023-12-10T11:40:18.241Z,3.53
2023-12-10T11:43:03.806Z,4.00
2023-12-10T11:45:49.215Z,4.87
2023-12-10T11:48:34.648Z,3.80
2023-12-10T11:51:20.216Z,3.83
2023-12-10T11:54:06.487Z,4.50
2023-12-10T11:56:51.787Z,3.77
2023-12-10T11:59:37.628Z,4.67
2023-12-10T12:02:24.161Z,3.83
2023-12-10T12:05:10.269Z,5.03
2023-12-10T12:07:55.307Z,3.73
2023-12-10T12:10:40.712Z,4.03
2023-12-10T12:13:25.885Z,4.47
2023-12-10T12:16:11.260Z,3.83
2023-12-10T12:18:56.602Z,4.53
2023-12-10T12:21:42.011Z,3.67
2023-12-10T12:24:26.975Z,3.93
2023-12-10T12:27:12.956Z,4.17
2023-12-10T12:29:57.937Z,4.27
2023-12-10T12:32:43.067Z,4.87
2023-12-10T12:35:28.860Z,3.70
2023-12-10T12:38:13.995Z,4.03
2023-12-10T12:40:59.162Z,4.17
2023-12-10T12:43:44.096Z,4.60
2023-12-10T12:46:29.084Z,3.83
2023-12-10T12:49:14.154Z,4.60
2023-12-10T12:51:59.490Z,4.63
2023-12-10T12:54:44.428Z,5.27
2023-12-10T12:57:29.827Z,5.83
2023-12-10T13:00:15.526Z,5.07
2023-12-10T13:03:00.686Z,5.30
2023-12-10T13:05:46.144Z,4.43
2023-12-10T13:08:31.552Z,4.53
2023-12-10T13:11:16.452Z,5.30
2023-12-10T13:14:01.560Z,4.70
2023-12-10T13:16:46.560Z,5.57
2023-12-10T13:19:32.398Z,4.37
2023-12-10T13:22:17.697Z,4.70
2023-12-10T13:25:02.945Z,4.03
2023-12-10T13:27:48.277Z,4.37
2023-12-10T13:30:33.762Z,3.97
2023-12-10T13:33:19.471Z,4.10
2023-12-10T13:36:05.834Z,4.23
2023-12-10T13:38:51.045Z,4.27
2023-12-10T13:41:35.936Z,4.77
2023-12-10T13:44:21.378Z,4.43
2023-12-10T13:47:06.717Z,4.67
2023-12-10T13:49:51.876Z,4.63
2023-12-10T13:52:37.109Z,4.33
2023-12-10T13:55:22.180Z,4.53
2023-12-10T13:58:07.123Z,5.07
2023-12-10T14:00:52.266Z,4.73
2023-12-10T14:03:37.788Z,4.63
2023-12-10T14:06:23.447Z,4.97
2023-12-10T14:09:08.701Z,5.03
2023-12-10T14:11:53.778Z,4.77
2023-12-10T14:14:38.789Z,5.37
2023-12-10T14:17:23.658Z,5.13
2023-12-10T14:20:09.035Z,5.20
2023-12-10T14:22:54.202Z,4.40
2023-12-10T14:25:41.581Z,5.23
2023-12-10T14:28:28.957Z,5.00
2023-12-10T14:31:14.190Z,4.57
2023-12-10T14:33:59.137Z,4.90
2023-12-10T14:36:43.976Z,4.97
2023-12-10T14:39:28.953Z,4.40
2023-12-10T14:42:14.409Z,5.03
2023-12-10T14:44:59.337Z,4.53
2023-12-10T14:47:44.392Z,4.50
2023-12-10T14:50:29.835Z,4.80
2023-12-10T14:53:14.907Z,4.97
2023-12-10T14:56:00.200Z,5.27
2023-12-10T14:58:45.028Z,4.80
2023-12-10T15:01:30.018Z,5.17
2023-12-10T15:04:15.523Z,4.73
2023-12-10T15:07:00.726Z,5.13
2023-12-10T15:09:45.698Z,4.43
2023-12-10T15:12:30.940Z,5.03
2023-12-10T15:15:15.745Z,5.63
2023-12-10T15:18:00.860Z,4.97
2023-12-10T15:20:46.310Z,5.30
2023-12-10T15:23:31.195Z,5.53
2023-12-10T15:26:16.561Z,5.17
2023-12-10T15:29:01.675Z,5.60
2023-12-10T15:31:46.997Z,5.13
2023-12-10T15:34:31.856Z,5.00
2023-12-10T15:37:16.790Z,5.57
2023-12-10T15:40:02.369Z,5.80
2023-12-10T15:42:47.648Z,5.07
2023-12-10T15:45:32.436Z,7.07
2023-12-10T15:48:17.478Z,5.40
2023-12-10T15:51:02.870Z,5.43
2023-12-10T15:53:47.746Z,6.67
2023-12-10T15:56:32.655Z,5.73
2023-12-10T15:59:17.519Z,5.70
2023-12-10T16:02:02.465Z,5.30
2023-12-10T16:04:47.922Z,6.10
2023-12-10T16:07:41.312Z,5.87
2023-12-10T16:10:34.123Z,6.90
2023-12-10T16:13:21.831Z,5.97
2023-12-10T16:16:09.015Z,6.20
2023-12-10T16:18:54.903Z,6.00
2023-12-10T16:21:40.374Z,6.00
2023-12-10T16:24:25.335Z,6.10
2023-12-10T16:27:10.645Z,6.43
2023-12-10T16:29:56.029Z,5.90
2023-12-10T16:32:41.156Z,6.40
2023-12-10T16:35:25.900Z,6.63
2023-12-10T16:38:10.954Z,6.67
2023-12-10T16:40:55.764Z,6.53
2023-12-10T16:43:43.139Z,6.27
2023-12-10T16:46:39.648Z,5.53
2023-12-10T16:49:25.726Z,6.17
2023-12-10T16:52:10.749Z,6.93
2023-12-10T16:54:55.586Z,6.03
2023-12-10T16:57:41.040Z,7.37
2023-12-10T17:00:26.394Z,6.67
2023-12-10T17:03:14.544Z,6.17
2023-12-10T17:05:59.785Z,6.70
2023-12-10T17:08:44.688Z,6.80
2023-12-10T17:11:29.747Z,5.93
2023-12-10T17:14:14.611Z,6.77
2023-12-10T17:16:59.645Z,6.60
2023-12-10T17:19:44.645Z,7.10
2023-12-10T17:22:29.988Z,7.10
2023-12-10T17:25:15.013Z,7.23
2023-12-10T17:28:00.456Z,7.43
2023-12-10T17:30:46.127Z,6.97
2023-12-10T17:33:31.404Z,8.47
2023-12-10T17:36:16.634Z,7.83
2023-12-10T17:39:01.644Z,6.93
2023-12-10T17:41:46.538Z,6.17
2023-12-10T17:44:33.425Z,6.07
2023-12-10T17:47:21.096Z,6.20
2023-12-10T17:50:07.167Z,6.40
2023-12-10T17:52:52.368Z,6.77
2023-12-10T17:55:37.946Z,5.40
2023-12-10T17:58:23.472Z,5.37
2023-12-10T18:01:08.443Z,5.53
2023-12-10T18:03:54.084Z,5.40
2023-12-10T18:06:39.361Z,4.93
2023-12-10T18:09:24.713Z,5.73
2023-12-10T18:12:09.566Z,5.53
2023-12-10T18:14:54.556Z,5.20
2023-12-10T18:17:41.191Z,5.30
2023-12-10T18:20:26.709Z,4.80
2023-12-10T18:23:11.735Z,4.33
2023-12-10T18:25:56.822Z,4.53
2023-12-10T18:28:45.091Z,4.00
2023-12-10T18:31:30.600Z,3.70
2023-12-10T18:34:16.097Z,4.73
2023-12-10T18:37:01.498Z,4.30
2023-12-10T18:39:46.516Z,4.60
2023-12-10T18:42:31.434Z,4.70
2023-12-10T18:45:16.341Z,4.50
2023-12-10T18:48:01.934Z,4.40
2023-12-10T18:50:48.012Z,3.90
2023-12-10T18:53:33.247Z,4.30
2023-12-10T18:56:18.132Z,4.43
2023-12-10T18:59:03.299Z,4.07
2023-12-10T19:01:48.138Z,4.90
2023-12-10T19:04:33.189Z,4.83
2023-12-10T19:07:18.554Z,5.73
2023-12-10T19:10:04.181Z,5.10
2023-12-10T19:12:49.513Z,4.93
2023-12-10T19:15:34.458Z,4.77
2023-12-10T19:18:20.039Z,5.07
2023-12-10T19:21:05.521Z,4.83
2023-12-10T19:23:50.640Z,5.33
2023-12-10T19:26:35.594Z,5.37
2023-12-10T19:29:20.553Z,4.50
2023-12-10T19:32:06.058Z,4.83
2023-12-10T19:34:50.936Z,4.87
2023-12-10T19:37:36.573Z,5.67
2023-12-10T19:40:21.773Z,4.80
2023-12-10T19:43:06.713Z,4.97
2023-12-10T19:45:51.736Z,4.83
2023-12-10T19:48:37.254Z,4.87
2023-12-10T19:51:22.459Z,4.50
2023-12-10T19:54:07.490Z,4.50
2023-12-10T19:56:52.388Z,4.63
2023-12-10T19:59:37.178Z,4.37
2023-12-10T20:02:22.137Z,4.67
2023-12-10T20:05:07.541Z,4.20
2023-12-10T20:07:52.699Z,4.23
2023-12-10T20:10:38.043Z,3.93
2023-12-10T20:13:23.309Z,4.07
2023-12-10T20:16:09.007Z,3.80
2023-12-10T20:18:54.161Z,4.47
2023-12-10T20:21:40.038Z,4.10
2023-12-10T20:24:33.235Z,3.33
2023-12-10T20:27:21.654Z,3.70
2023-12-10T20:30:07.223Z,3.67
2023-12-10T20:32:52.462Z,3.47
2023-12-10T20:35:38.861Z,2.50
2023-12-10T20:38:23.677Z,2.60
2023-12-10T20:41:09.242Z,2.67
2023-12-10T20:43:54.201Z,2.87
2023-12-10T20:46:38.977Z,2.80
2023-12-10T20:49:24.087Z,2.47
2023-12-10T20:52:09.562Z,1.87
2023-12-10T20:54:55.052Z,2.03
2023-12-10T20:57:40.606Z,2.03
2023-12-10T21:00:26.414Z,2.43
2023-12-10T21:03:11.794Z,1.90
2023-12-10T21:05:57.152Z,1.83
2023-12-10T21:08:42.093Z,2.03
2023-12-10T21:11:27.282Z,2.00
2023-12-10T21:14:12.691Z,2.40
2023-12-10T21:16:57.657Z,2.60
2023-12-10T21:19:42.705Z,2.00
2023-12-10T21:22:28.009Z,1.83
2023-12-10T21:25:14.571Z,2.43
2023-12-10T21:28:00.261Z,2.00
2023-12-10T21:30:45.511Z,2.10
2023-12-10T21:33:30.476Z,2.37
2023-12-10T21:36:15.418Z,2.23
2023-12-10T21:39:00.388Z,2.30
2023-12-10T21:41:45.345Z,2.27
2023-12-10T21:44:30.278Z,2.30
2023-12-10T21:47:15.761Z,2.57
2023-12-10T21:50:00.718Z,2.37
2023-12-10T21:52:46.107Z,2.50
2023-12-10T21:55:31.043Z,2.73
2023-12-10T21:58:16.087Z,2.40
2023-12-10T22:01:01.663Z,2.53
2023-12-10T22:03:46.543Z,2.70
2023-12-10T22:06:32.004Z,2.73
2023-12-10T22:09:17.417Z,2.67
2023-12-10T22:12:02.473Z,2.87
2023-12-10T22:14:47.860Z,2.40
2023-12-10T22:17:33.396Z,2.60
2023-12-10T22:20:18.825Z,2.90
2023-12-10T22:23:03.747Z,2.60
2023-12-10T22:25:48.677Z,3.00
2023-12-10T22:28:33.593Z,2.83
2023-12-10T22:31:18.625Z,2.47
2023-12-10T22:34:03.488Z,3.10
2023-12-10T22:36:48.824Z,3.33
2023-12-10T22:39:34.306Z,2.90
2023-12-10T22:42:19.077Z,3.00
2023-12-10T22:45:04.573Z,3.10
2023-12-10T22:47:50.536Z,3.43
2023-12-10T22:50:36.947Z,3.33
2023-12-10T22:53:24.573Z,3.37
2023-12-10T22:56:09.653Z,3.30
2023-12-10T22:58:54.968Z,3.40
2023-12-10T23:01:40.512Z,3.20
2023-12-10T23:04:25.954Z,3.20
2023-12-10T23:07:11.655Z,3.10
2023-12-10T23:09:56.825Z,2.93
2023-12-10T23:12:41.836Z,3.37
2023-12-10T23:15:29.715Z,3.37
2023-12-10T23:18:15.160Z,3.07
2023-12-10T23:21:00.190Z,3.90
2023-12-10T23:23:44.943Z,3.60
2023-12-10T23:26:29.938Z,3.80
2023-12-10T23:29:14.906Z,3.80
2023-12-10T23:31:59.798Z,3.70
2023-12-10T23:34:44.723Z,3.30
2023-12-10T23:37:29.832Z,3.83
2023-12-10T23:40:15.273Z,3.80
2023-12-10T23:43:00.766Z,3.97
2023-12-10T23:45:45.761Z,4.07
2023-12-10T23:48:31.198Z,3.87
2023-12-10T23:51:20.539Z,3.90
2023-12-10T23:54:05.900Z,3.70
2023-12-10T23:56:51.078Z,3.70
2023-12-10T23:59:36.099Z,4.10
